createdAt,value
2023-01-10T00:00:14.452Z,1004.02
2023-01-10T00:01:14.402Z,1004.06
2023-01-10T00:02:14.412Z,1004.05
2023-01-10T00:03:14.359Z,1004.09
2023-01-10T00:04:14.357Z,1004.12
2023-01-10T00:05:14.321Z,1004.18
2023-01-10T00:06:14.238Z,1004.20
2023-01-10T00:07:14.189Z,1004.21
2023-01-10T00:08:14.157Z,1004.24
2023-01-10T00:09:14.127Z,1004.24
2023-01-10T00:10:14.088Z,1004.30
2023-01-10T00:11:14.111Z,1004.33
2023-01-10T00:12:14.043Z,1004.35
2023-01-10T00:13:14.003Z,1004.39
2023-01-10T00:14:13.994Z,1004.44
2023-01-10T00:15:13.925Z,1004.43
2023-01-10T00:16:13.958Z,1004.49
2023-01-10T00:17:13.846Z,1004.46
2023-01-10T00:18:13.817Z,1004.52
2023-01-10T00:19:13.857Z,1004.51
2023-01-10T00:20:13.736Z,1004.51
2023-01-10T00:21:13.702Z,1004.51
2023-01-10T00:22:13.718Z,1004.52
2023-01-10T00:23:13.635Z,1004.54
2023-01-10T00:24:13.603Z,1004.52
2023-01-10T00:25:13.630Z,1004.54
2023-01-10T00:26:13.528Z,1004.53
2023-01-10T00:27:13.495Z,1004.54
2023-01-10T00:28:13.463Z,1004.52
2023-01-10T00:29:13.427Z,1004.54
2023-01-10T00:30:13.453Z,1004.58
2023-01-10T00:31:13.382Z,1004.56
2023-01-10T00:32:13.325Z,1004.56
2023-01-10T00:33:13.289Z,1004.57
2023-01-10T00:34:13.261Z,1004.58
2023-01-10T00:35:13.277Z,1004.59
2023-01-10T00:36:13.179Z,1004.56
2023-01-10T00:37:13.167Z,1004.59
2023-01-10T00:38:13.112Z,1004.59
2023-01-10T00:39:13.075Z,1004.58
2023-01-10T00:40:13.109Z,1004.62
2023-01-10T00:41:13.011Z,1004.64
2023-01-10T00:42:12.981Z,1004.66
2023-01-10T00:43:12.935Z,1004.68
2023-01-10T00:44:12.914Z,1004.72
2023-01-10T00:45:12.874Z,1004.73
2023-01-10T00:46:12.942Z,1004.73
2023-01-10T00:47:12.804Z,1004.80
2023-01-10T00:48:12.768Z,1004.74
2023-01-10T00:49:12.728Z,1004.79
2023-01-10T00:50:12.706Z,1004.84
2023-01-10T00:51:12.727Z,1004.81
2023-01-10T00:52:12.627Z,1004.87
2023-01-10T00:53:12.593Z,1004.91
2023-01-10T00:54:12.558Z,1004.89
2023-01-10T00:55:12.524Z,1004.92
2023-01-10T00:56:12.498Z,1004.91
2023-01-10T00:57:12.517Z,1004.94
2023-01-10T00:58:12.415Z,1004.97
2023-01-10T00:59:12.378Z,1005.00
2023-01-10T01:00:12.364Z,1005.00
2023-01-10T01:01:12.414Z,1005.04
2023-01-10T01:02:12.349Z,1005.05
2023-01-10T01:03:12.309Z,1005.08
2023-01-10T01:04:12.222Z,1005.09
2023-01-10T01:05:12.177Z,1005.10
2023-01-10T01:06:12.225Z,1005.10
2023-01-10T01:07:12.115Z,1005.16
2023-01-10T01:08:12.069Z,1005.16
2023-01-10T01:09:12.051Z,1005.17
2023-01-10T01:10:12.012Z,1005.24
2023-01-10T01:11:11.961Z,1005.22
2023-01-10T01:12:11.996Z,1005.27
2023-01-10T01:13:11.891Z,1005.26
2023-01-10T01:14:11.857Z,1005.27
2023-01-10T01:15:11.833Z,1005.30
2023-01-10T01:16:11.826Z,1005.31
2023-01-10T01:17:11.755Z,1005.30
2023-01-10T01:18:11.783Z,1005.33
2023-01-10T01:19:11.682Z,1005.39
2023-01-10T01:20:11.678Z,1005.38
2023-01-10T01:21:11.634Z,1005.41
2023-01-10T01:22:11.578Z,1005.43
2023-01-10T01:23:11.568Z,1005.42
2023-01-10T01:24:11.565Z,1005.45
2023-01-10T01:25:11.471Z,1005.46
2023-01-10T01:26:11.435Z,1005.50
2023-01-10T01:27:11.406Z,1005.46
2023-01-10T01:28:11.376Z,1005.49
2023-01-10T01:29:11.333Z,1005.52
2023-01-10T01:30:11.349Z,1005.58
2023-01-10T01:31:11.295Z,1005.59
2023-01-10T01:32:11.247Z,1005.58
2023-01-10T01:33:11.190Z,1005.60
2023-01-10T01:34:11.162Z,1005.61
2023-01-10T01:35:11.136Z,1005.61
2023-01-10T01:36:11.140Z,1005.62
2023-01-10T01:37:11.065Z,1005.63
2023-01-10T01:38:11.017Z,1005.66
2023-01-10T01:39:11.045Z,1005.64
2023-01-10T01:40:10.956Z,1005.63
2023-01-10T01:41:10.921Z,1005.64
2023-01-10T01:42:10.883Z,1005.62
2023-01-10T01:43:10.850Z,1005.64
2023-01-10T01:44:10.806Z,1005.62
2023-01-10T01:45:10.839Z,1005.66
2023-01-10T01:46:10.758Z,1005.67
2023-01-10T01:47:10.703Z,1005.69
2023-01-10T01:48:10.667Z,1005.70
2023-01-10T01:49:10.640Z,1005.67
2023-01-10T01:50:10.600Z,1005.72
2023-01-10T01:51:10.630Z,1005.71
2023-01-10T01:52:10.538Z,1005.67
2023-01-10T01:53:10.500Z,1005.71
2023-01-10T01:54:10.457Z,1005.70
2023-01-10T01:55:10.429Z,1005.72
2023-01-10T01:56:10.447Z,1005.70
2023-01-10T01:57:10.365Z,1005.69
2023-01-10T01:58:10.317Z,1005.79
2023-01-10T01:59:10.288Z,1005.77
2023-01-10T02:00:10.253Z,1005.80
2023-01-10T02:01:10.259Z,1005.81
2023-01-10T02:02:10.299Z,1005.81
2023-01-10T02:03:10.199Z,1005.87
2023-01-10T02:04:10.173Z,1005.90
2023-01-10T02:05:10.072Z,1005.91
2023-01-10T02:06:10.036Z,1005.91
2023-01-10T02:07:10.014Z,1005.93
2023-01-10T02:08:10.038Z,1005.94
2023-01-10T02:09:09.936Z,1005.96
2023-01-10T02:10:09.895Z,1005.95
2023-01-10T02:11:09.873Z,1005.96
2023-01-10T02:12:09.829Z,1006.00
2023-01-10T02:13:09.849Z,1006.01
2023-01-10T02:14:09.842Z,1006.04
2023-01-10T02:15:09.772Z,1006.06
2023-01-10T02:16:09.736Z,1006.09
2023-01-10T02:17:09.652Z,1006.09
2023-01-10T02:18:09.626Z,1006.11
2023-01-10T02:19:09.641Z,1006.10
2023-01-10T02:20:09.550Z,1006.14
2023-01-10T02:21:09.507Z,1006.05
2023-01-10T02:22:09.483Z,1006.10
2023-01-10T02:23:09.436Z,1006.10
2023-01-10T02:24:09.409Z,1006.11
2023-01-10T02:25:09.464Z,1006.12
2023-01-10T02:26:09.329Z,1006.13
2023-01-10T02:27:09.293Z,1006.14
2023-01-10T02:28:09.257Z,1006.15
2023-01-10T02:29:09.237Z,1006.18
2023-01-10T02:30:09.222Z,1006.12
2023-01-10T02:31:09.251Z,1006.16
2023-01-10T02:32:09.115Z,1006.16
2023-01-10T02:33:09.084Z,1006.16
2023-01-10T02:34:09.063Z,1006.17
2023-01-10T02:35:09.011Z,1006.20
2023-01-10T02:36:08.983Z,1006.24
2023-01-10T02:37:09.022Z,1006.24
2023-01-10T02:38:08.921Z,1006.25
2023-01-10T02:39:08.875Z,1006.26
2023-01-10T02:40:08.855Z,1006.27
2023-01-10T02:41:08.814Z,1006.30
2023-01-10T02:42:08.835Z,1006.31
2023-01-10T02:43:08.763Z,1006.33
2023-01-10T02:44:08.698Z,1006.34
2023-01-10T02:45:08.663Z,1006.36
2023-01-10T02:46:08.675Z,1006.35
2023-01-10T02:47:08.648Z,1006.42
2023-01-10T02:48:08.572Z,1006.43
2023-01-10T02:49:08.521Z,1006.40
2023-01-10T02:50:08.492Z,1006.39
2023-01-10T02:51:08.453Z,1006.42
2023-01-10T02:52:08.488Z,1006.41
2023-01-10T02:53:08.384Z,1006.43
2023-01-10T02:54:08.411Z,1006.45
2023-01-10T02:55:08.322Z,1006.47
2023-01-10T02:56:08.271Z,1006.52
2023-01-10T02:57:08.239Z,1006.53
2023-01-10T02:58:08.277Z,1006.54
2023-01-10T02:59:08.175Z,1006.55
2023-01-10T03:00:08.140Z,1006.57
2023-01-10T03:01:08.140Z,1006.62
2023-01-10T03:02:08.117Z,1006.60
2023-01-10T03:03:08.040Z,1006.62
2023-01-10T03:04:08.065Z,1006.65
2023-01-10T03:05:08.040Z,1006.66
2023-01-10T03:06:07.926Z,1006.71
2023-01-10T03:07:07.888Z,1006.70
2023-01-10T03:08:07.860Z,1006.76
2023-01-10T03:09:07.838Z,1006.76
2023-01-10T03:10:07.854Z,1006.76
2023-01-10T03:11:07.751Z,1006.79
2023-01-10T03:12:07.721Z,1006.79
2023-01-10T03:13:07.680Z,1006.77
2023-01-10T03:14:07.643Z,1006.79
2023-01-10T03:15:07.609Z,1006.79
2023-01-10T03:16:07.806Z,1006.84
2023-01-10T03:17:07.534Z,1006.83
2023-01-10T03:18:07.508Z,1006.85
2023-01-10T03:19:07.465Z,1006.91
2023-01-10T03:20:07.429Z,1006.95
2023-01-10T03:21:07.396Z,1006.91
2023-01-10T03:22:07.449Z,1006.97
2023-01-10T03:23:07.335Z,1006.97
2023-01-10T03:24:07.287Z,1007.00
2023-01-10T03:25:07.289Z,1006.99
2023-01-10T03:26:07.218Z,1007.01
2023-01-10T03:27:07.192Z,1007.01
2023-01-10T03:28:07.211Z,1007.09
2023-01-10T03:29:07.120Z,1007.11
2023-01-10T03:30:07.079Z,1007.12
2023-01-10T03:31:07.111Z,1007.14
2023-01-10T03:32:06.992Z,1007.15
2023-01-10T03:33:06.984Z,1007.19
2023-01-10T03:34:06.990Z,1007.22
2023-01-10T03:35:06.899Z,1007.25
2023-01-10T03:36:06.868Z,1007.24
2023-01-10T03:37:06.822Z,1007.30
2023-01-10T03:38:06.796Z,1007.31
2023-01-10T03:39:06.740Z,1007.35
2023-01-10T03:40:06.777Z,1007.38
2023-01-10T03:41:06.718Z,1007.36
2023-01-10T03:42:06.667Z,1007.39
2023-01-10T03:43:06.627Z,1007.48
2023-01-10T03:44:07.075Z,1007.55
2023-01-10T03:45:06.542Z,1007.55
2023-01-10T03:46:06.625Z,1007.59
2023-01-10T03:47:06.464Z,1007.63
2023-01-10T03:48:06.436Z,1007.66
2023-01-10T03:49:06.401Z,1007.68
2023-01-10T03:50:06.424Z,1007.64
2023-01-10T03:51:06.333Z,1007.67
2023-01-10T03:52:06.295Z,1007.63
2023-01-10T03:53:06.255Z,1007.71
2023-01-10T03:54:06.221Z,1007.67
2023-01-10T03:55:06.247Z,1007.68
2023-01-10T03:56:06.153Z,1007.73
2023-01-10T03:57:06.112Z,1007.77
2023-01-10T03:58:06.069Z,1007.77
2023-01-10T03:59:06.033Z,1007.86
2023-01-10T04:00:06.006Z,1007.87
2023-01-10T04:01:06.099Z,1007.90
2023-01-10T04:02:06.110Z,1007.89
2023-01-10T04:03:05.901Z,1007.89
2023-01-10T04:04:05.921Z,1007.94
2023-01-10T04:05:05.836Z,1007.93
2023-01-10T04:06:05.857Z,1007.93
2023-01-10T04:07:05.758Z,1007.94
2023-01-10T04:08:05.736Z,1007.97
2023-01-10T04:09:05.694Z,1007.99
2023-01-10T04:10:05.646Z,1007.99
2023-01-10T04:11:05.614Z,1008.03
2023-01-10T04:12:05.662Z,1008.09
2023-01-10T04:13:05.542Z,1008.11
2023-01-10T04:14:05.527Z,1008.17
2023-01-10T04:15:05.476Z,1008.18
2023-01-10T04:16:05.446Z,1008.15
2023-01-10T04:17:05.410Z,1008.17
2023-01-10T04:18:05.418Z,1008.23
2023-01-10T04:19:05.329Z,1008.23
2023-01-10T04:20:05.299Z,1008.28
2023-01-10T04:21:05.271Z,1008.28
2023-01-10T04:22:05.229Z,1008.32
2023-01-10T04:23:05.203Z,1008.30
2023-01-10T04:24:05.220Z,1008.30
2023-01-10T04:25:05.114Z,1008.33
2023-01-10T04:26:05.091Z,1008.35
2023-01-10T04:27:05.051Z,1008.39
2023-01-10T04:28:05.010Z,1008.43
2023-01-10T04:29:04.981Z,1008.44
2023-01-10T04:30:05.008Z,1008.45
2023-01-10T04:31:04.910Z,1008.48
2023-01-10T04:32:04.863Z,1008.45
2023-01-10T04:33:04.859Z,1008.49
2023-01-10T04:34:04.801Z,1008.50
2023-01-10T04:35:04.776Z,1008.55
2023-01-10T04:36:04.784Z,1008.56
2023-01-10T04:37:04.709Z,1008.56
2023-01-10T04:38:04.679Z,1008.55
2023-01-10T04:39:04.633Z,1008.63
2023-01-10T04:40:04.596Z,1008.63
2023-01-10T04:41:04.556Z,1008.63
2023-01-10T04:42:04.666Z,1008.64
2023-01-10T04:43:04.488Z,1008.69
2023-01-10T04:44:04.496Z,1008.67
2023-01-10T04:45:04.419Z,1008.71
2023-01-10T04:46:04.408Z,1008.68
2023-01-10T04:47:04.354Z,1008.74
2023-01-10T04:48:04.310Z,1008.77
2023-01-10T04:49:04.336Z,1008.78
2023-01-10T04:50:04.227Z,1008.80
2023-01-10T04:51:04.204Z,1008.81
2023-01-10T04:52:04.182Z,1008.82
2023-01-10T04:53:04.121Z,1008.88
2023-01-10T04:54:04.153Z,1008.88
2023-01-10T04:55:04.051Z,1008.89
2023-01-10T04:56:04.037Z,1008.93
2023-01-10T04:57:03.997Z,1008.98
2023-01-10T04:58:03.968Z,1009.00
2023-01-10T04:59:03.975Z,1009.00
2023-01-10T05:00:03.883Z,1009.00
2023-01-10T05:01:03.876Z,1009.05
2023-01-10T05:02:03.936Z,1009.08
2023-01-10T05:03:03.978Z,1009.11
2023-01-10T05:04:03.791Z,1009.12
2023-01-10T05:05:03.697Z,1009.12
2023-01-10T05:06:03.674Z,1009.15
2023-01-10T05:07:03.639Z,1009.18
2023-01-10T05:08:03.589Z,1009.22
2023-01-10T05:09:03.616Z,1009.23
2023-01-10T05:10:03.528Z,1009.24
2023-01-10T05:11:03.496Z,1009.26
2023-01-10T05:12:03.461Z,1009.27
2023-01-10T05:13:03.428Z,1009.28
2023-01-10T05:14:03.451Z,1009.29
2023-01-10T05:15:03.363Z,1009.30
2023-01-10T05:16:03.332Z,1009.36
2023-01-10T05:17:03.284Z,1009.31
2023-01-10T05:18:03.246Z,1009.29
2023-01-10T05:19:03.223Z,1009.34
2023-01-10T05:20:06.265Z,1009.36
2023-01-10T05:21:03.137Z,1009.36
2023-01-10T05:22:03.119Z,1009.40
2023-01-10T05:23:03.068Z,1009.42
2023-01-10T05:24:03.027Z,1009.46
2023-01-10T05:25:02.991Z,1009.47
2023-01-10T05:26:03.015Z,1009.49
2023-01-10T05:27:02.925Z,1009.52
2023-01-10T05:28:02.893Z,1009.55
2023-01-10T05:29:02.861Z,1009.54
2023-01-10T05:30:02.820Z,1009.62
2023-01-10T05:31:02.784Z,1009.60
2023-01-10T05:32:02.918Z,1009.62
2023-01-10T05:33:02.712Z,1009.66
2023-01-10T05:34:02.679Z,1009.73
2023-01-10T05:35:02.647Z,1009.72
2023-01-10T05:36:02.606Z,1009.76
2023-01-10T05:37:02.580Z,1009.76
2023-01-10T05:38:02.601Z,1009.81
2023-01-10T05:39:02.510Z,1009.85
2023-01-10T05:40:02.462Z,1009.85
2023-01-10T05:41:02.439Z,1009.91
2023-01-10T05:42:02.407Z,1009.89
2023-01-10T05:43:02.363Z,1009.93
2023-01-10T05:44:02.398Z,1009.95
2023-01-10T05:45:02.378Z,1009.95
2023-01-10T05:46:02.325Z,1009.99
2023-01-10T05:47:02.219Z,1010.00
2023-01-10T05:48:02.182Z,1009.99
2023-01-10T05:49:02.149Z,1010.06
2023-01-10T05:50:02.169Z,1010.08
2023-01-10T05:51:02.096Z,1010.07
2023-01-10T05:52:02.047Z,1010.06
2023-01-10T05:53:02.006Z,1010.06
2023-01-10T05:54:01.981Z,1010.04
2023-01-10T05:55:02.010Z,1010.07
2023-01-10T05:56:01.909Z,1010.08
2023-01-10T05:57:01.887Z,1010.11
2023-01-10T05:58:01.861Z,1010.13
2023-01-10T05:59:07.998Z,1010.16
2023-01-10T06:00:03.245Z,1010.18
2023-01-10T06:01:01.785Z,1010.20
2023-01-10T06:02:01.773Z,1010.18
2023-01-10T06:03:01.702Z,1010.25
2023-01-10T06:04:01.630Z,1010.23
2023-01-10T06:05:01.587Z,1010.29
2023-01-10T06:06:01.608Z,1010.33
2023-01-10T06:07:01.522Z,1010.32
2023-01-10T06:08:01.514Z,1010.33
2023-01-10T06:09:01.456Z,1010.33
2023-01-10T06:10:01.430Z,1010.41
2023-01-10T06:11:01.442Z,1010.44
2023-01-10T06:12:01.349Z,1010.46
2023-01-10T06:13:01.315Z,1010.43
2023-01-10T06:14:01.279Z,1010.50
2023-01-10T06:15:01.257Z,1010.54
2023-01-10T06:16:01.359Z,1010.49
2023-01-10T06:17:01.170Z,1010.46
2023-01-10T06:18:01.138Z,1010.54
2023-01-10T06:19:01.106Z,1010.53
2023-01-10T06:20:01.071Z,1010.51
2023-01-10T06:21:01.039Z,1010.58
2023-01-10T06:22:01.055Z,1010.54
2023-01-10T06:23:00.968Z,1010.60
2023-01-10T06:24:00.936Z,1010.57
2023-01-10T06:25:02.433Z,1010.61
2023-01-10T06:26:00.849Z,1010.62
2023-01-10T06:27:00.897Z,1010.69
2023-01-10T06:28:00.788Z,1010.70
2023-01-10T06:29:00.758Z,1010.76
2023-01-10T06:30:00.726Z,1010.77
2023-01-10T06:31:00.697Z,1010.79
2023-01-10T06:32:00.645Z,1010.78
2023-01-10T06:33:00.685Z,1010.80
2023-01-10T06:34:00.569Z,1010.86
2023-01-10T06:35:00.557Z,1010.87
2023-01-10T06:36:00.505Z,1010.90
2023-01-10T06:37:00.473Z,1010.91
2023-01-10T06:38:00.449Z,1010.97
2023-01-10T06:39:00.462Z,1011.00
2023-01-10T06:40:00.373Z,1011.03
2023-01-10T06:41:00.332Z,1011.03
2023-01-10T06:42:00.314Z,1011.06
2023-01-10T06:43:00.308Z,1011.07
2023-01-10T06:44:00.313Z,1011.12
2023-01-10T06:45:00.199Z,1011.15
2023-01-10T06:46:00.219Z,1011.13
2023-01-10T06:47:00.118Z,1011.15
2023-01-10T06:48:00.092Z,1011.19
2023-01-10T06:49:00.118Z,1011.23
2023-01-10T06:50:00.015Z,1011.21
2023-01-10T06:50:59.977Z,1011.24
2023-01-10T06:51:59.948Z,1011.23
2023-01-10T06:52:59.913Z,1011.26
2023-01-10T06:53:59.945Z,1011.26
2023-01-10T06:54:59.845Z,1011.29
2023-01-10T06:55:59.808Z,1011.30
2023-01-10T06:56:59.779Z,1011.33
2023-01-10T06:57:59.739Z,1011.36
2023-01-10T06:58:59.777Z,1011.38
2023-01-10T06:59:59.669Z,1011.42
2023-01-10T07:00:59.700Z,1011.44
2023-01-10T07:01:59.713Z,1011.46
2023-01-10T07:02:59.563Z,1011.50
2023-01-10T07:03:59.595Z,1011.52
2023-01-10T07:04:59.554Z,1011.46
2023-01-10T07:05:59.471Z,1011.47
2023-01-10T07:06:59.418Z,1011.52
2023-01-10T07:07:59.387Z,1011.54
2023-01-10T07:08:59.352Z,1011.54
2023-01-10T07:09:59.332Z,1011.57
2023-01-10T07:10:59.335Z,1011.58
2023-01-10T07:11:59.249Z,1011.58
2023-01-10T07:12:59.221Z,1011.57
2023-01-10T07:13:59.182Z,1011.62
2023-01-10T07:14:59.158Z,1011.63
2023-01-10T07:15:59.181Z,1011.65
2023-01-10T07:16:59.102Z,1011.67
2023-01-10T07:17:59.112Z,1011.70
2023-01-10T07:18:59.010Z,1011.75
2023-01-10T07:19:58.983Z,1011.77
2023-01-10T07:20:59.006Z,1011.76
2023-01-10T07:21:58.907Z,1011.80
2023-01-10T07:22:58.886Z,1011.80
2023-01-10T07:24:00.068Z,1011.81
2023-01-10T07:24:58.813Z,1011.82
2023-01-10T07:25:58.828Z,1011.85
2023-01-10T07:26:58.742Z,1011.90
2023-01-10T07:27:58.708Z,1011.96
2023-01-10T07:28:58.662Z,1011.96
2023-01-10T07:29:58.623Z,1011.97
2023-01-10T07:30:58.636Z,1012.01
2023-01-10T07:31:58.618Z,1012.05
2023-01-10T07:32:58.518Z,1012.05
2023-01-10T07:33:58.484Z,1012.02
2023-01-10T07:34:58.455Z,1012.08
2023-01-10T07:35:58.410Z,1012.05
2023-01-10T07:36:58.388Z,1012.09
2023-01-10T07:37:58.388Z,1012.10
2023-01-10T07:38:58.312Z,1012.14
2023-01-10T07:39:58.275Z,1012.23
2023-01-10T07:40:58.232Z,1012.24
2023-01-10T07:41:58.212Z,1012.27
2023-01-10T07:42:58.177Z,1012.28
2023-01-10T07:43:58.180Z,1012.27
2023-01-10T07:44:58.097Z,1012.28
2023-01-10T07:45:58.096Z,1012.30
2023-01-10T07:46:58.034Z,1012.31
2023-01-10T07:47:58.045Z,1012.30
2023-01-10T07:48:57.962Z,1012.36
2023-01-10T07:49:57.926Z,1012.37
2023-01-10T07:50:57.901Z,1012.37
2023-01-10T07:51:57.848Z,1012.42
2023-01-10T07:52:57.813Z,1012.44
2023-01-10T07:53:57.820Z,1012.46
2023-01-10T07:54:57.740Z,1012.45
2023-01-10T07:55:57.703Z,1012.50
2023-01-10T07:56:57.679Z,1012.49
2023-01-10T07:57:57.641Z,1012.53
2023-01-10T07:58:57.625Z,1012.56
2023-01-10T07:59:57.631Z,1012.59
2023-01-10T08:00:57.567Z,1012.61
2023-01-10T08:01:57.502Z,1012.60
2023-01-10T08:02:57.614Z,1012.63
2023-01-10T08:03:57.422Z,1012.57
2023-01-10T08:04:57.397Z,1012.60
2023-01-10T08:05:57.433Z,1012.59
2023-01-10T08:06:57.349Z,1012.63
2023-01-10T08:07:57.302Z,1012.64
2023-01-10T08:08:57.299Z,1012.65
2023-01-10T08:09:57.211Z,1012.67
2023-01-10T08:10:57.180Z,1012.69
2023-01-10T08:11:57.195Z,1012.68
2023-01-10T08:13:01.461Z,1012.68
2023-01-10T08:13:57.071Z,1012.73
2023-01-10T08:14:57.042Z,1012.73
2023-01-10T08:15:57.034Z,1012.77
2023-01-10T08:16:57.008Z,1012.79
2023-01-10T08:17:56.992Z,1012.83
2023-01-10T08:18:56.913Z,1012.85
2023-01-10T08:19:56.863Z,1012.84
2023-01-10T08:20:56.825Z,1012.86
2023-01-10T08:21:56.799Z,1012.87
2023-01-10T08:22:56.771Z,1012.92
2023-01-10T08:23:56.776Z,1012.93
2023-01-10T08:24:56.695Z,1012.93
2023-01-10T08:25:56.658Z,1012.91
2023-01-10T08:26:56.619Z,1012.97
2023-01-10T08:27:56.590Z,1012.96
2023-01-10T08:28:56.555Z,1013.00
2023-01-10T08:29:56.579Z,1012.97
2023-01-10T08:30:56.520Z,1013.01
2023-01-10T08:31:56.447Z,1013.03
2023-01-10T08:32:56.412Z,1013.02
2023-01-10T08:33:56.383Z,1013.02
2023-01-10T08:34:56.333Z,1013.04
2023-01-10T08:35:56.379Z,1013.04
2023-01-10T08:36:56.268Z,1013.11
2023-01-10T08:37:56.290Z,1013.07
2023-01-10T08:38:56.199Z,1013.08
2023-01-10T08:39:56.165Z,1013.13
2023-01-10T08:40:56.128Z,1013.12
2023-01-10T08:41:56.093Z,1013.15
2023-01-10T08:42:56.113Z,1013.15
2023-01-10T08:43:56.021Z,1013.12
2023-01-10T08:44:56.002Z,1013.16
2023-01-10T08:45:55.960Z,1013.19
2023-01-10T08:46:55.966Z,1013.19
2023-01-10T08:47:55.942Z,1013.20
2023-01-10T08:48:55.849Z,1013.25
2023-01-10T08:49:55.834Z,1013.29
2023-01-10T08:50:55.772Z,1013.31
2023-01-10T08:51:55.750Z,1013.30
2023-01-10T08:52:55.710Z,1013.30
2023-01-10T08:53:55.738Z,1013.33
2023-01-10T08:54:55.640Z,1013.34
2023-01-10T08:55:55.613Z,1013.38
2023-01-10T08:56:55.578Z,1013.41
2023-01-10T08:57:55.538Z,1013.43
2023-01-10T08:58:55.500Z,1013.49
2023-01-10T08:59:55.513Z,1013.48
2023-01-10T09:00:55.477Z,1013.47
2023-01-10T09:01:55.418Z,1013.51
2023-01-10T09:02:55.424Z,1013.57
2023-01-10T09:03:55.341Z,1013.54
2023-01-10T09:04:55.292Z,1013.52
2023-01-10T09:05:55.348Z,1013.53
2023-01-10T09:06:55.225Z,1013.56
2023-01-10T09:07:55.189Z,1013.55
2023-01-10T09:08:55.148Z,1013.58
2023-01-10T09:09:55.134Z,1013.62
2023-01-10T09:10:55.086Z,1013.60
2023-01-10T09:11:55.114Z,1013.63
2023-01-10T09:12:55.020Z,1013.64
2023-01-10T09:13:54.984Z,1013.66
2023-01-10T09:14:54.949Z,1013.59
2023-01-10T09:15:54.948Z,1013.63
2023-01-10T09:16:54.889Z,1013.70
2023-01-10T09:17:54.915Z,1013.72
2023-01-10T09:18:54.807Z,1013.75
2023-01-10T09:19:54.776Z,1013.76
2023-01-10T09:20:54.745Z,1013.78
2023-01-10T09:21:54.711Z,1013.75
2023-01-10T09:22:54.687Z,1013.81
2023-01-10T09:23:54.686Z,1013.82
2023-01-10T09:24:54.608Z,1013.79
2023-01-10T09:25:54.586Z,1013.79
2023-01-10T09:26:54.539Z,1013.78
2023-01-10T09:27:54.500Z,1013.73
2023-01-10T09:28:54.473Z,1013.73
2023-01-10T09:29:54.519Z,1013.73
2023-01-10T09:30:54.403Z,1013.78
2023-01-10T09:31:54.406Z,1013.82
2023-01-10T09:32:54.341Z,1013.82
2023-01-10T09:33:54.307Z,1013.83
2023-01-10T09:34:54.255Z,1013.83
2023-01-10T09:35:54.298Z,1013.83
2023-01-10T09:36:54.203Z,1013.86
2023-01-10T09:37:54.161Z,1013.88
2023-01-10T09:38:54.125Z,1013.87
2023-01-10T09:39:54.090Z,1013.86
2023-01-10T09:40:54.070Z,1013.86
2023-01-10T09:41:54.071Z,1013.87
2023-01-10T09:42:54.003Z,1013.89
2023-01-10T09:43:53.951Z,1013.91
2023-01-10T09:44:53.911Z,1013.89
2023-01-10T09:45:53.885Z,1013.91
2023-01-10T09:46:53.992Z,1013.88
2023-01-10T09:47:53.863Z,1013.89
2023-01-10T09:48:53.795Z,1013.91
2023-01-10T09:49:53.764Z,1013.93
2023-01-10T09:50:53.742Z,1013.94
2023-01-10T09:51:53.671Z,1013.94
2023-01-10T09:52:53.655Z,1013.89
2023-01-10T09:53:55.657Z,1013.90
2023-01-10T09:54:53.566Z,1013.89
2023-01-10T09:55:53.529Z,1013.91
2023-01-10T09:56:53.489Z,1013.90
2023-01-10T09:57:53.506Z,1013.94
2023-01-10T09:58:53.425Z,1013.94
2023-01-10T09:59:53.458Z,1013.91
2023-01-10T10:00:53.400Z,1013.89
2023-01-10T10:01:53.316Z,1013.87
2023-01-10T10:02:53.302Z,1013.84
2023-01-10T10:03:53.416Z,1013.90
2023-01-10T10:04:53.217Z,1013.90
2023-01-10T10:06:00.906Z,1013.92
2023-01-10T10:06:53.148Z,1013.90
2023-01-10T10:07:53.131Z,1013.89
2023-01-10T10:08:53.147Z,1013.88
2023-01-10T10:09:53.044Z,1013.87
2023-01-10T10:10:53.013Z,1013.89
2023-01-10T10:11:52.974Z,1013.89
2023-01-10T10:12:52.940Z,1013.91
2023-01-10T10:13:52.903Z,1013.90
2023-01-10T10:14:52.915Z,1013.92
2023-01-10T10:15:52.881Z,1013.90
2023-01-10T10:16:52.795Z,1013.92
2023-01-10T10:17:52.773Z,1013.88
2023-01-10T10:18:52.760Z,1013.89
2023-01-10T10:19:52.724Z,1013.91
2023-01-10T10:20:52.722Z,1013.92
2023-01-10T10:21:52.646Z,1013.93
2023-01-10T10:22:52.615Z,1013.94
2023-01-10T10:23:52.574Z,1013.95
2023-01-10T10:24:52.553Z,1014.00
2023-01-10T10:25:52.497Z,1013.96
2023-01-10T10:26:52.507Z,1014.02
2023-01-10T10:27:52.424Z,1014.03
2023-01-10T10:28:54.940Z,1014.03
2023-01-10T10:29:52.354Z,1014.00
2023-01-10T10:30:52.325Z,1014.03
2023-01-10T10:31:52.351Z,1014.04
2023-01-10T10:32:52.311Z,1014.08
2023-01-10T10:33:52.273Z,1014.11
2023-01-10T10:34:52.200Z,1014.11
2023-01-10T10:35:52.152Z,1014.16
2023-01-10T10:36:52.198Z,1014.17
2023-01-10T10:37:52.083Z,1014.16
2023-01-10T10:38:52.048Z,1014.13
2023-01-10T10:39:52.018Z,1014.14
2023-01-10T10:40:51.989Z,1014.16
2023-01-10T10:41:52.002Z,1014.19
2023-01-10T10:42:51.926Z,1014.16
2023-01-10T10:43:51.877Z,1014.24
2023-01-10T10:44:51.841Z,1014.25
2023-01-10T10:45:51.839Z,1014.20
2023-01-10T10:46:51.842Z,1014.24
2023-01-10T10:47:51.744Z,1014.32
2023-01-10T10:48:51.742Z,1014.37
2023-01-10T10:49:51.676Z,1014.33
2023-01-10T10:50:51.636Z,1014.39
2023-01-10T10:51:51.618Z,1014.36
2023-01-10T10:52:51.651Z,1014.41
2023-01-10T10:53:51.544Z,1014.39
2023-01-10T10:54:51.498Z,1014.38
2023-01-10T10:55:51.478Z,1014.36
2023-01-10T10:56:51.440Z,1014.38
2023-01-10T10:57:59.748Z,1014.38
2023-01-10T10:58:51.431Z,1014.33
2023-01-10T10:59:51.335Z,1014.34
2023-01-10T11:00:51.402Z,1014.35
2023-01-10T11:01:51.405Z,1014.30
2023-01-10T11:02:51.229Z,1014.27
2023-01-10T11:03:51.210Z,1014.27
2023-01-10T11:04:51.242Z,1014.25
2023-01-10T11:05:51.128Z,1014.23
2023-01-10T11:06:51.108Z,1014.23
2023-01-10T11:07:51.057Z,1014.20
2023-01-10T11:08:51.033Z,1014.19
2023-01-10T11:09:50.996Z,1014.17
2023-01-10T11:10:51.008Z,1014.19
2023-01-10T11:11:50.938Z,1014.23
2023-01-10T11:12:50.946Z,1014.22
2023-01-10T11:13:50.896Z,1014.23
2023-01-10T11:14:50.828Z,1014.25
2023-01-10T11:15:50.822Z,1014.26
2023-01-10T11:16:50.829Z,1014.24
2023-01-10T11:17:50.731Z,1014.27
2023-01-10T11:18:50.694Z,1014.22
2023-01-10T11:19:50.668Z,1014.20
2023-01-10T11:20:50.641Z,1014.19
2023-01-10T11:21:50.607Z,1014.18
2023-01-10T11:22:50.866Z,1014.14
2023-01-10T11:23:50.534Z,1014.13
2023-01-10T11:24:50.498Z,1014.08
2023-01-10T11:25:50.456Z,1014.12
2023-01-10T11:26:50.441Z,1014.20
2023-01-10T11:27:50.388Z,1014.21
2023-01-10T11:28:50.420Z,1014.27
2023-01-10T11:29:50.315Z,1014.28
2023-01-10T11:30:50.316Z,1014.30
2023-01-10T11:31:50.286Z,1014.34
2023-01-10T11:32:50.221Z,1014.42
2023-01-10T11:33:50.203Z,1014.46
2023-01-10T11:34:50.255Z,1014.43
2023-01-10T11:35:50.119Z,1014.42
2023-01-10T11:36:50.096Z,1014.38
2023-01-10T11:37:50.053Z,1014.37
2023-01-10T11:38:50.030Z,1014.39
2023-01-10T11:39:49.992Z,1014.47
2023-01-10T11:40:50.021Z,1014.45
2023-01-10T11:41:49.924Z,1014.47
2023-01-10T11:42:49.888Z,1014.51
2023-01-10T11:43:49.876Z,1014.55
2023-01-10T11:44:49.860Z,1014.58
2023-01-10T11:45:49.832Z,1014.56
2023-01-10T11:46:49.806Z,1014.57
2023-01-10T11:47:49.712Z,1014.55
2023-01-10T11:49:05.482Z,1014.56
2023-01-10T11:49:49.644Z,1014.53
2023-01-10T11:50:49.612Z,1014.49
2023-01-10T11:51:49.584Z,1014.47
2023-01-10T11:52:49.592Z,1014.47
2023-01-10T11:53:49.507Z,1014.45
2023-01-10T11:54:49.482Z,1014.46
2023-01-10T11:55:49.444Z,1014.47
2023-01-10T11:56:49.412Z,1014.49
2023-01-10T11:57:49.376Z,1014.54
2023-01-10T11:58:49.395Z,1014.49
2023-01-10T11:59:49.306Z,1014.51
2023-01-10T12:00:49.275Z,1014.49
2023-01-10T12:01:49.241Z,1014.47
2023-01-10T12:02:49.214Z,1014.50
2023-01-10T12:03:49.171Z,1014.47
2023-01-10T12:04:49.223Z,1014.47